Terminal Aerodrome Forecast
Issued by NWS Tulsa, OK

Home | Current Version | Previous Version | Text Only | Print | Product List | Glossary On
Versions: 1 2 3 4 5 6 7 8 9 10 11 12 13 14 15 16 17 18 19 20
000
FTUS44 KTSA 280500
TAFTUL
TAF
KTUL 280520Z 2806/2906 16006KT P6SM SCT035 BKN120
     FM281200 18006KT P6SM SCT050 BKN250
      TEMPO 2815/2818 -TSRA BKN035CB
     FM281800 VRB06KT P6SM SCT050 BKN250 PROB30 2818/2824 5SM -TSRA
      BR BKN050CB
     FM290000 VRB06KT P6SM SCT050 BKN250 PROB30 2900/2906 4SM -TSRA
      BR BKN040CB=

USA.gov is the U.S. government's official web portal to all federal, state and local government web resources and services.